createdAt,value
2022-11-13T00:01:15.458Z,10.14
2022-11-13T00:03:44.946Z,10.13
2022-11-13T00:06:14.661Z,10.09
2022-11-13T00:08:45.114Z,10.10
2022-11-13T00:11:18.440Z,9.79
2022-11-13T00:13:47.984Z,9.89
2022-11-13T00:16:19.455Z,9.91
2022-11-13T00:18:49.036Z,9.65
2022-11-13T00:21:20.068Z,9.77
2022-11-13T00:23:50.677Z,9.96
2022-11-13T00:26:21.914Z,9.97
2022-11-13T00:28:55.486Z,10.04
2022-11-13T00:31:24.333Z,9.94
2022-11-13T00:36:41.440Z,10.03
2022-11-13T00:39:11.605Z,10.02
2022-11-13T00:41:40.069Z,10.10
2022-11-13T00:44:09.139Z,10.07
2022-11-13T00:46:38.217Z,10.08
2022-11-13T00:49:06.814Z,10.05
2022-11-13T00:51:35.281Z,10.07
2022-11-13T00:54:03.659Z,10.05
2022-11-13T00:56:33.633Z,10.09
2022-11-13T00:59:02.047Z,10.06
2022-11-13T01:01:30.668Z,9.91
2022-11-13T01:03:59.200Z,9.98
2022-11-13T01:06:29.436Z,9.97
2022-11-13T01:08:59.949Z,10.02
2022-11-13T01:11:32.405Z,9.98
2022-11-13T01:14:00.775Z,10.02
2022-11-13T01:16:30.523Z,10.06
2022-11-13T01:18:59.313Z,10.05
2022-11-13T01:21:31.582Z,10.03
2022-11-13T01:24:00.363Z,9.93
2022-11-13T01:26:32.911Z,9.95
2022-11-13T01:29:04.399Z,10.00
2022-11-13T01:31:33.269Z,9.99
2022-11-13T01:34:01.664Z,10.00
2022-11-13T01:36:31.379Z,10.04
2022-11-13T01:39:01.824Z,9.98
2022-11-13T01:41:35.340Z,10.01
2022-11-13T01:44:04.087Z,10.02
2022-11-13T01:46:34.235Z,10.00
2022-11-13T01:49:22.286Z,10.04
2022-11-13T01:51:55.922Z,10.10
2022-11-13T01:54:30.557Z,10.09
2022-11-13T01:57:01.138Z,10.07
2022-11-13T01:59:33.410Z,10.12
2022-11-13T02:02:02.949Z,10.12
2022-11-13T02:04:33.031Z,10.11
2022-11-13T02:07:05.615Z,10.12
2022-11-13T02:09:39.154Z,10.08
2022-11-13T02:12:12.611Z,10.12
2022-11-13T02:14:44.348Z,10.11
2022-11-13T02:17:17.810Z,10.05
2022-11-13T02:19:52.101Z,9.98
2022-11-13T02:22:34.979Z,9.89
2022-11-13T02:25:07.451Z,10.00
2022-11-13T02:27:44.062Z,10.05
2022-11-13T02:30:17.506Z,10.03
2022-11-13T02:32:51.106Z,10.02
2022-11-13T02:35:25.610Z,9.92
2022-11-13T02:37:55.874Z,9.97
2022-11-13T02:40:26.824Z,9.91
2022-11-13T02:42:55.220Z,10.00
2022-11-13T02:45:24.495Z,9.96
2022-11-13T02:47:52.995Z,9.98
2022-11-13T02:50:21.747Z,9.97
2022-11-13T02:52:50.172Z,9.91
2022-11-13T02:55:19.001Z,9.97
2022-11-13T02:57:48.923Z,10.01
2022-11-13T03:00:18.748Z,10.15
2022-11-13T03:02:47.189Z,10.07
2022-11-13T03:05:15.577Z,10.10
2022-11-13T03:07:44.440Z,10.16
2022-11-13T03:10:13.208Z,10.18
2022-11-13T03:12:42.233Z,10.12
2022-11-13T03:15:12.669Z,10.18
2022-11-13T03:17:42.570Z,10.17
2022-11-13T03:20:11.685Z,10.24
2022-11-13T03:22:40.252Z,10.21
2022-11-13T03:25:10.898Z,10.24
2022-11-13T03:27:39.934Z,10.22
2022-11-13T03:30:11.977Z,10.28
2022-11-13T03:32:40.296Z,10.35
2022-11-13T03:35:10.074Z,10.30
2022-11-13T03:37:38.857Z,10.27
2022-11-13T03:40:09.487Z,10.17
2022-11-13T03:42:37.843Z,10.25
2022-11-13T03:45:07.225Z,10.19
2022-11-13T03:47:37.410Z,10.18
2022-11-13T03:50:07.040Z,10.21
2022-11-13T03:52:35.795Z,10.18
2022-11-13T03:55:04.241Z,10.11
2022-11-13T03:57:32.867Z,10.13
2022-11-13T04:00:01.640Z,10.10
2022-11-13T04:02:30.335Z,10.08
2022-11-13T04:05:00.248Z,9.98
2022-11-13T04:07:28.712Z,9.96
2022-11-13T04:09:57.090Z,9.87
2022-11-13T04:12:27.295Z,9.85
2022-11-13T04:14:55.611Z,9.81
2022-11-13T04:17:24.075Z,9.80
2022-11-13T04:19:52.596Z,9.76
2022-11-13T04:22:22.587Z,9.74
2022-11-13T04:24:51.644Z,9.67
2022-11-13T04:27:20.081Z,9.65
2022-11-13T04:29:49.360Z,9.45
2022-11-13T04:32:17.936Z,9.52
2022-11-13T04:34:46.533Z,9.56
2022-11-13T04:37:15.023Z,9.59
2022-11-13T04:39:44.896Z,9.55
2022-11-13T04:42:31.509Z,9.41
2022-11-13T04:45:02.759Z,9.50
2022-11-13T04:47:32.264Z,9.37
2022-11-13T04:50:03.427Z,9.46
2022-11-13T04:52:31.987Z,9.40
2022-11-13T04:55:02.025Z,9.49
2022-11-13T04:57:30.718Z,9.50
2022-11-13T04:59:59.606Z,9.52
2022-11-13T05:02:28.293Z,9.53
2022-11-13T05:05:01.784Z,9.41
2022-11-13T05:07:33.395Z,9.48
2022-11-13T05:10:07.558Z,9.52
2022-11-13T05:12:35.986Z,9.54
2022-11-13T05:15:05.322Z,9.48
2022-11-13T05:17:33.708Z,9.52
2022-11-13T05:20:02.953Z,9.47
2022-11-13T05:22:31.685Z,9.54
2022-11-13T05:25:00.328Z,9.39
2022-11-13T05:27:32.653Z,9.43
2022-11-13T05:30:01.130Z,9.44
2022-11-13T05:32:29.969Z,9.53
2022-11-13T05:34:58.436Z,9.48
2022-11-13T05:37:26.771Z,9.45
2022-11-13T05:39:55.160Z,9.28
2022-11-13T05:42:23.649Z,9.31
2022-11-13T05:44:53.495Z,9.24
2022-11-13T05:47:22.250Z,9.24
2022-11-13T05:49:50.542Z,9.25
2022-11-13T05:52:18.991Z,9.23
2022-11-13T05:54:47.424Z,9.19
2022-11-13T05:57:15.900Z,9.15
2022-11-13T05:59:44.521Z,9.02
2022-11-13T06:02:14.335Z,8.87
2022-11-13T06:04:43.050Z,9.00
2022-11-13T06:07:11.560Z,8.93
2022-11-13T06:09:40.545Z,8.88
2022-11-13T06:12:09.428Z,8.84
2022-11-13T06:14:37.928Z,8.68
2022-11-13T06:17:06.272Z,8.77
2022-11-13T06:19:36.234Z,8.73
2022-11-13T06:22:04.767Z,8.78
2022-11-13T06:24:33.311Z,8.78
2022-11-13T06:27:02.132Z,8.62
2022-11-13T06:29:30.670Z,8.73
2022-11-13T06:31:59.029Z,8.73
2022-11-13T06:34:27.904Z,8.55
2022-11-13T06:36:57.756Z,8.63
2022-11-13T06:39:26.198Z,8.66
2022-11-13T06:41:54.730Z,8.60
2022-11-13T06:44:23.053Z,8.43
2022-11-13T06:46:51.479Z,8.55
2022-11-13T06:49:19.870Z,8.52
2022-11-13T06:51:48.379Z,8.42
2022-11-13T06:54:18.428Z,8.45
2022-11-13T06:56:47.717Z,8.50
2022-11-13T06:59:16.080Z,8.41
2022-11-13T07:01:44.593Z,8.50
2022-11-13T07:04:14.393Z,8.38
2022-11-13T07:06:42.905Z,8.30
2022-11-13T07:09:11.260Z,8.45
2022-11-13T07:11:41.362Z,8.40
2022-11-13T07:14:12.868Z,8.45
2022-11-13T07:17:07.494Z,8.38
2022-11-13T07:19:29.532Z,8.40
2022-11-13T07:21:57.857Z,8.48
2022-11-13T07:24:26.849Z,8.48
2022-11-13T07:26:56.735Z,8.46
2022-11-13T07:29:25.194Z,8.47
2022-11-13T07:31:53.516Z,8.56
2022-11-13T07:34:21.866Z,8.62
2022-11-13T07:36:50.361Z,8.75
2022-11-13T07:39:19.017Z,8.76
2022-11-13T07:41:49.174Z,8.84
2022-11-13T07:44:40.122Z,8.95
2022-11-13T07:47:07.912Z,9.03
2022-11-13T07:49:36.379Z,9.21
2022-11-13T07:52:07.680Z,9.30
2022-11-13T07:54:36.222Z,9.55
2022-11-13T07:57:04.950Z,9.66
2022-11-13T07:59:35.158Z,9.93
2022-11-13T08:02:04.652Z,10.12
2022-11-13T08:04:33.470Z,10.30
2022-11-13T08:07:02.054Z,10.46
2022-11-13T08:09:30.805Z,10.63
2022-11-13T08:12:00.135Z,10.87
2022-11-13T08:14:28.775Z,11.02
2022-11-13T08:16:58.753Z,11.19
2022-11-13T08:19:27.316Z,11.41
2022-11-13T08:21:55.881Z,11.50
2022-11-13T08:24:24.787Z,11.74
2022-11-13T08:26:53.250Z,11.86
2022-11-13T08:29:25.012Z,12.01
2022-11-13T08:31:53.879Z,12.19
2022-11-13T08:34:23.950Z,12.33
2022-11-13T08:36:52.895Z,12.60
2022-11-13T08:39:21.345Z,12.77
2022-11-13T08:41:50.410Z,12.85
2022-11-13T08:44:19.197Z,13.16
2022-11-13T08:46:50.304Z,13.16
2022-11-13T08:49:18.742Z,13.27
2022-11-13T08:51:48.734Z,13.56
2022-11-13T08:54:17.798Z,13.86
2022-11-13T08:56:56.577Z,13.77
2022-11-13T08:59:27.195Z,14.15
2022-11-13T09:01:59.657Z,14.39
2022-11-13T09:04:28.854Z,14.29
2022-11-13T09:06:58.723Z,14.64
2022-11-13T09:09:28.320Z,14.70
2022-11-13T09:11:57.261Z,14.75
2022-11-13T09:14:26.275Z,14.70
2022-11-13T09:16:54.855Z,14.65
2022-11-13T09:19:27.029Z,14.94
2022-11-13T09:22:00.340Z,15.18
2022-11-13T09:24:28.693Z,15.26
2022-11-13T09:26:58.157Z,15.10
2022-11-13T09:29:28.618Z,15.00
2022-11-13T09:31:57.731Z,15.50
2022-11-13T09:34:28.416Z,15.29
2022-11-13T09:36:56.998Z,15.56
2022-11-13T09:39:29.704Z,15.71
2022-11-13T09:42:09.500Z,16.01
2022-11-13T09:44:45.614Z,15.94
2022-11-13T09:47:22.737Z,16.60
2022-11-13T09:49:57.374Z,16.38
2022-11-13T09:52:35.825Z,16.66
2022-11-13T09:55:06.844Z,17.02
2022-11-13T09:57:45.987Z,17.58
2022-11-13T10:00:19.063Z,17.70
2022-11-13T10:03:00.526Z,17.56
2022-11-13T10:05:40.952Z,18.42
2022-11-13T10:08:18.025Z,18.45
2022-11-13T10:10:57.755Z,19.08
2022-11-13T10:13:30.178Z,19.38
2022-11-13T10:16:12.238Z,19.37
2022-11-13T10:18:42.036Z,19.43
2022-11-13T10:21:21.481Z,19.51
2022-11-13T10:24:02.027Z,19.44
2022-11-13T10:26:31.965Z,19.30
2022-11-13T10:29:07.724Z,18.95
2022-11-13T10:31:45.556Z,19.22
2022-11-13T10:34:16.106Z,19.22
2022-11-13T10:37:01.726Z,19.16
2022-11-13T10:39:30.195Z,18.83
2022-11-13T10:42:00.022Z,18.24
2022-11-13T10:44:35.468Z,18.76
2022-11-13T10:47:26.455Z,18.90
2022-11-13T10:50:09.730Z,19.64
2022-11-13T10:52:48.202Z,19.73
2022-11-13T10:55:28.595Z,19.88
2022-11-13T10:58:01.454Z,19.82
2022-11-13T11:00:34.843Z,19.82
2022-11-13T11:03:05.444Z,20.13
2022-11-13T11:05:34.216Z,20.11
2022-11-13T11:08:03.008Z,20.08
2022-11-13T11:10:35.323Z,20.04
2022-11-13T11:13:13.571Z,20.47
2022-11-13T11:15:49.314Z,20.03
2022-11-13T11:18:27.697Z,20.02
2022-11-13T11:21:00.108Z,20.18
2022-11-13T11:23:42.342Z,20.74
2022-11-13T11:26:19.376Z,20.78
2022-11-13T11:29:01.625Z,20.42
2022-11-13T11:31:42.134Z,19.91
2022-11-13T11:34:19.961Z,19.91
2022-11-13T11:37:02.330Z,20.25
2022-11-13T11:39:40.484Z,20.11
2022-11-13T11:42:21.960Z,19.89
2022-11-13T11:45:12.642Z,19.95
2022-11-13T11:47:41.143Z,20.27
2022-11-13T11:50:16.559Z,20.42
2022-11-13T11:52:59.544Z,20.32
2022-11-13T11:55:54.345Z,20.28
2022-11-13T11:58:53.512Z,19.83
2022-11-13T12:02:00.916Z,20.02
2022-11-13T12:04:48.447Z,20.09
2022-11-13T12:07:34.206Z,19.98
2022-11-13T12:10:11.234Z,20.18
2022-11-13T12:12:56.308Z,20.42
2022-11-13T12:15:37.125Z,20.28
2022-11-13T12:18:18.554Z,20.17
2022-11-13T12:20:58.081Z,20.24
2022-11-13T12:23:42.177Z,19.54
2022-11-13T12:26:20.766Z,19.43
2022-11-13T12:29:01.566Z,19.08
2022-11-13T12:31:52.069Z,19.60
2022-11-13T12:34:29.866Z,19.66
2022-11-13T12:36:59.601Z,19.97
2022-11-13T12:39:44.002Z,19.91
2022-11-13T12:42:23.108Z,20.25
2022-11-13T12:45:02.407Z,20.21
2022-11-13T12:47:34.185Z,20.21
2022-11-13T12:50:07.773Z,20.11
2022-11-13T12:52:36.433Z,19.53
2022-11-13T12:55:09.298Z,19.49
2022-11-13T12:57:49.219Z,19.84
2022-11-13T13:00:30.470Z,19.86
2022-11-13T13:03:17.801Z,19.66
2022-11-13T13:06:20.988Z,19.60
2022-11-13T13:09:08.117Z,19.26
2022-11-13T13:11:45.478Z,19.65
2022-11-13T13:14:51.356Z,19.69
2022-11-13T13:17:22.804Z,19.80
2022-11-13T13:20:00.619Z,19.90
2022-11-13T13:22:33.946Z,19.87
2022-11-13T13:25:08.421Z,19.57
2022-11-13T13:27:43.566Z,19.27
2022-11-13T13:30:21.669Z,19.47
2022-11-13T13:33:04.190Z,19.89
2022-11-13T13:35:40.532Z,19.61
2022-11-13T13:38:20.175Z,20.06
2022-11-13T13:41:15.892Z,20.33
2022-11-13T13:44:06.045Z,20.29
2022-11-13T13:46:36.407Z,20.25
2022-11-13T13:49:09.530Z,20.29
2022-11-13T13:51:43.137Z,20.59
2022-11-13T13:54:25.074Z,20.78
2022-11-13T13:56:55.284Z,20.69
2022-11-13T13:59:29.846Z,20.47
2022-11-13T14:02:00.454Z,20.55
2022-11-13T14:04:30.700Z,20.49
2022-11-13T14:07:01.104Z,19.89
2022-11-13T14:09:32.086Z,20.54
2022-11-13T14:12:09.360Z,20.59
2022-11-13T14:14:40.971Z,20.01
2022-11-13T14:17:12.674Z,20.17
2022-11-13T14:19:41.257Z,20.36
2022-11-13T14:22:13.403Z,20.10
2022-11-13T14:24:49.916Z,20.26
2022-11-13T14:27:24.312Z,20.30
2022-11-13T14:29:56.676Z,20.11
2022-11-13T14:32:29.526Z,20.31
2022-11-13T14:35:02.259Z,20.27
2022-11-13T14:37:37.712Z,20.09
2022-11-13T14:40:21.537Z,20.02
2022-11-13T14:42:54.438Z,19.86
2022-11-13T14:45:25.804Z,20.02
2022-11-13T14:48:00.379Z,19.83
2022-11-13T14:50:31.855Z,20.03
2022-11-13T14:53:03.765Z,19.97
2022-11-13T14:55:37.638Z,20.05
2022-11-13T14:58:06.953Z,20.08
2022-11-13T15:00:38.256Z,20.00
2022-11-13T15:03:07.621Z,19.89
2022-11-13T15:05:37.935Z,19.77
2022-11-13T15:08:07.224Z,19.66
2022-11-13T15:10:38.641Z,19.47
2022-11-13T15:13:13.253Z,19.30
2022-11-13T15:15:42.261Z,19.25
2022-11-13T15:18:18.438Z,19.05
2022-11-13T15:20:47.411Z,18.96
2022-11-13T15:23:17.851Z,18.86
2022-11-13T15:25:48.065Z,18.56
2022-11-13T15:28:16.406Z,18.20
2022-11-13T15:30:44.864Z,18.16
2022-11-13T15:33:16.816Z,18.21
2022-11-13T15:35:45.560Z,18.14
2022-11-13T15:38:18.371Z,17.62
2022-11-13T15:40:48.793Z,17.76
2022-11-13T15:43:21.363Z,17.52
2022-11-13T15:45:49.771Z,17.49
2022-11-13T15:48:18.568Z,17.38
2022-11-13T15:50:47.241Z,17.25
2022-11-13T15:53:15.764Z,17.00
2022-11-13T15:55:44.632Z,16.89
2022-11-13T15:58:17.172Z,16.73
2022-11-13T16:00:46.061Z,16.58
2022-11-13T16:03:14.461Z,16.47
2022-11-13T16:05:43.042Z,16.32
2022-11-13T16:08:14.957Z,16.12
2022-11-13T16:10:43.634Z,16.08
2022-11-13T16:13:13.101Z,15.84
2022-11-13T16:15:43.563Z,15.44
2022-11-13T16:18:25.211Z,15.59
2022-11-13T16:20:54.185Z,15.54
2022-11-13T16:23:23.146Z,15.39
2022-11-13T16:25:52.763Z,15.38
2022-11-13T16:28:21.955Z,15.24
2022-11-13T16:30:54.357Z,15.09
2022-11-13T16:33:23.267Z,14.94
2022-11-13T16:35:52.444Z,14.96
2022-11-13T16:38:20.807Z,14.86
2022-11-13T16:40:49.174Z,14.73
2022-11-13T16:43:17.866Z,14.69
2022-11-13T16:45:46.179Z,14.63
2022-11-13T16:48:17.422Z,14.54
2022-11-13T16:50:45.774Z,14.44
2022-11-13T16:53:14.216Z,14.40
2022-11-13T16:55:42.591Z,14.31
2022-11-13T16:58:15.240Z,14.15
2022-11-13T17:00:43.611Z,14.10
2022-11-13T17:03:12.126Z,14.02
2022-11-13T17:05:41.994Z,13.93
2022-11-13T17:08:14.207Z,13.87
2022-11-13T17:10:42.640Z,13.78
2022-11-13T17:13:11.866Z,13.69
2022-11-13T17:15:40.320Z,13.59
2022-11-13T17:18:10.467Z,13.54
2022-11-13T17:20:39.389Z,13.45
2022-11-13T17:23:16.882Z,13.36
2022-11-13T17:25:45.393Z,13.34
2022-11-13T17:28:13.985Z,13.36
2022-11-13T17:30:42.411Z,13.30
2022-11-13T17:33:10.846Z,13.23
2022-11-13T17:35:39.466Z,13.10
2022-11-13T17:38:09.413Z,13.03
2022-11-13T17:40:37.822Z,12.97
2022-11-13T17:43:09.312Z,12.88
2022-11-13T17:45:38.812Z,12.83
2022-11-13T17:48:07.586Z,12.76
2022-11-13T17:50:36.049Z,12.67
2022-11-13T17:53:04.485Z,12.53
2022-11-13T17:55:34.290Z,12.49
2022-11-13T17:58:04.070Z,12.45
2022-11-13T18:00:32.695Z,12.38
2022-11-13T18:03:01.127Z,12.35
2022-11-13T18:05:29.733Z,12.29
2022-11-13T18:07:58.235Z,12.29
2022-11-13T18:10:29.316Z,12.23
2022-11-13T18:12:59.351Z,12.17
2022-11-13T18:15:28.312Z,12.17
2022-11-13T18:17:56.713Z,12.17
2022-11-13T18:20:29.016Z,12.06
2022-11-13T18:22:58.026Z,12.08
2022-11-13T18:25:29.606Z,12.18
2022-11-13T18:27:59.363Z,12.29
2022-11-13T18:30:27.750Z,12.29
2022-11-13T18:32:56.098Z,12.23
2022-11-13T18:35:24.511Z,12.21
2022-11-13T18:37:53.189Z,12.13
2022-11-13T18:40:21.563Z,12.11
2022-11-13T18:42:51.975Z,12.08
2022-11-13T18:45:22.092Z,12.12
2022-11-13T18:47:50.732Z,12.00
2022-11-13T18:50:19.164Z,12.06
2022-11-13T18:52:47.575Z,11.95
2022-11-13T18:55:16.048Z,11.83
2022-11-13T18:57:44.473Z,11.89
2022-11-13T19:00:14.638Z,11.80
2022-11-13T19:02:44.377Z,11.81
2022-11-13T19:05:12.816Z,11.73
2022-11-13T19:07:43.914Z,11.71
2022-11-13T19:10:12.401Z,11.57
2022-11-13T19:12:41.054Z,11.55
2022-11-13T19:15:11.111Z,11.55
2022-11-13T19:17:39.621Z,11.46
2022-11-13T19:20:11.764Z,11.46
2022-11-13T19:22:40.756Z,11.49
2022-11-13T19:25:10.082Z,11.37
2022-11-13T19:27:39.142Z,11.42
2022-11-13T19:30:09.184Z,11.38
2022-11-13T19:32:38.083Z,11.30
2022-11-13T19:35:08.107Z,11.23
2022-11-13T19:37:40.419Z,11.17
2022-11-13T19:40:13.049Z,11.10
2022-11-13T19:42:43.485Z,10.76
2022-11-13T19:45:14.020Z,11.04
2022-11-13T19:47:43.090Z,11.08
2022-11-13T19:50:12.693Z,11.01
2022-11-13T19:52:42.715Z,10.78
2022-11-13T19:55:11.385Z,11.02
2022-11-13T19:57:45.093Z,11.01
2022-11-13T20:00:15.778Z,10.90
2022-11-13T20:02:44.460Z,10.92
2022-11-13T20:05:13.384Z,10.91
2022-11-13T20:07:45.811Z,10.90
2022-11-13T20:10:16.274Z,10.86
2022-11-13T20:12:46.079Z,10.78
2022-11-13T20:15:14.965Z,10.76
2022-11-13T20:17:43.829Z,10.80
2022-11-13T20:20:13.672Z,10.73
2022-11-13T20:22:44.353Z,10.68
2022-11-13T20:25:12.978Z,10.63
2022-11-13T20:27:47.134Z,10.58
2022-11-13T20:30:16.457Z,10.60
2022-11-13T20:32:45.098Z,10.53
2022-11-13T20:35:16.241Z,10.53
2022-11-13T20:37:46.552Z,10.50
2022-11-13T20:40:15.762Z,10.47
2022-11-13T20:42:44.602Z,10.45
2022-11-13T20:45:13.267Z,10.50
2022-11-13T20:47:42.095Z,10.44
2022-11-13T20:50:11.935Z,10.43
2022-11-13T20:52:41.014Z,10.42
2022-11-13T20:55:11.405Z,10.34
2022-11-13T20:57:41.223Z,10.32
2022-11-13T21:00:12.784Z,10.31
2022-11-13T21:02:41.452Z,10.32
2022-11-13T21:05:10.822Z,10.26
2022-11-13T21:07:39.836Z,10.25
2022-11-13T21:10:10.933Z,10.15
2022-11-13T21:12:39.948Z,10.18
2022-11-13T21:15:12.996Z,10.15
2022-11-13T21:17:41.868Z,9.96
2022-11-13T21:20:14.328Z,10.09
2022-11-13T21:22:42.977Z,10.07
2022-11-13T21:25:13.096Z,10.08
2022-11-13T21:27:42.639Z,10.12
2022-11-13T21:30:12.939Z,10.02
2022-11-13T21:32:41.806Z,10.06
2022-11-13T21:35:10.800Z,10.05
2022-11-13T21:37:39.393Z,10.11
2022-11-13T21:40:10.851Z,10.14
2022-11-13T21:42:40.936Z,10.12
2022-11-13T21:45:10.992Z,10.10
2022-11-13T21:47:39.962Z,10.05
2022-11-13T21:50:09.964Z,9.90
2022-11-13T21:52:38.408Z,9.93
2022-11-13T21:55:08.678Z,9.87
2022-11-13T21:57:37.374Z,10.03
2022-11-13T22:00:11.099Z,10.00
2022-11-13T22:02:39.495Z,9.98
2022-11-13T22:05:09.175Z,9.98
2022-11-13T22:07:37.965Z,9.86
2022-11-13T22:10:08.626Z,9.75
2022-11-13T22:12:37.281Z,9.63
2022-11-13T22:15:14.540Z,9.83
2022-11-13T22:17:42.946Z,9.78
2022-11-13T22:20:13.113Z,9.78
2022-11-13T22:22:41.972Z,9.70
2022-11-13T22:25:10.790Z,9.69
2022-11-13T22:27:39.310Z,9.29
2022-11-13T22:30:11.265Z,9.46
2022-11-13T22:32:39.755Z,9.56
2022-11-13T22:35:09.594Z,9.63
2022-11-13T22:37:37.959Z,9.53
2022-11-13T22:40:07.680Z,9.44
2022-11-13T22:42:37.210Z,9.35
2022-11-13T22:45:22.832Z,9.40
2022-11-13T22:47:52.378Z,9.46
2022-11-13T22:50:20.790Z,9.50
2022-11-13T22:52:49.285Z,9.35
2022-11-13T22:55:18.012Z,9.00
2022-11-13T22:57:46.585Z,9.16
2022-11-13T23:00:18.139Z,9.14
2022-11-13T23:02:47.525Z,9.33
2022-11-13T23:05:16.542Z,8.99
2022-11-13T23:07:45.136Z,9.05
2022-11-13T23:10:14.360Z,9.11
2022-11-13T23:12:43.005Z,9.17
2022-11-13T23:15:12.357Z,9.06
2022-11-13T23:17:42.320Z,9.03
2022-11-13T23:20:12.458Z,9.17
2022-11-13T23:22:41.126Z,9.04
2022-11-13T23:25:10.848Z,9.19
2022-11-13T23:27:39.447Z,8.88
2022-11-13T23:30:10.394Z,9.07
2022-11-13T23:32:38.802Z,9.10
2022-11-13T23:35:10.034Z,9.09
2022-11-13T23:37:38.795Z,8.99
2022-11-13T23:40:09.211Z,8.84
2022-11-13T23:42:54.264Z,9.13
2022-11-13T23:45:24.066Z,8.92
2022-11-13T23:47:53.184Z,8.92
2022-11-13T23:50:23.214Z,9.01
2022-11-13T23:52:51.923Z,8.88
2022-11-13T23:55:21.270Z,8.92
2022-11-13T23:57:56.549Z,8.64
